الصفحة الرئيسية
METAR-TAF:

METAR-TAF

مطار :

ستوكهولم-Arlanda, السويد

مطار ستوكهولم أرلاندا

دائرة عرض: 59-39N, خط طول: 017-57E, ارتفاع: 38 متر

مراقبة الطقس الحالي

تاريخ ووقت الإصدار 29 دقيقة قبل الساعة 08:20UTC
ريح 3 عقدة من الشرق
درجة الحرارة -6°درجة مئوية
الرطوبة 86%
ضغط 1029 hPa
الرؤية: 5000 متر
غيوم مفككة على ارتفاع 1400 قدم
ثلوج خفيفة

METAR: ESSA 220820Z 09003KT 5000 -SN BKN014 M06/M08 Q1029 R01L/450164 R01R/410165 R08/////// TEMPO 4000

زمن: 09:49 (08:49 UTC)

توقعات

تاريخ ووقت الإصدار 3ساعات و 19 دقيقة قبل الساعة 05:30UTC
التوقعات صالحة من22 الساعة 06 UTC إلى 23 الساعة 06 UTC
ريح 2 عقدةمن اتجاهات متغيرة
الرؤية 10 كم أو أكثر
غيوم مفككة على ارتفاع 3500 قدم
نظرية الاحتمالات 40%
من 22 الساعة 06 UTC إلى 23 الساعة 06 UTC
الرؤية: 4000 متر
غيوم مفككة على ارتفاع 1000 قدم
ثلوج خفيفة

TAF: ESSA 220530Z 2206/2306 VRB02KT 9999 BKN035 PROB40 2206/2306 4000 -SN BKN010

أرصاد الطقس والتوقعات من أكثر من 4000 مطار (تقارير الطقس للمطار METAR والتنبؤ بالطقس بالمطارTAF).

المحطات المتاحة هي النقط الصفراء والحمراء على الخريطة.

حرك المؤشر فوق النقطة لمعرفة اسم المحطة.

ثم انقر لمعرفة أرصاد وتوقعات الطقس.

لتغيير الخارطة: اضغط على الأزرار الخضراء مع رمز الصليب الأسود للتكبير. على الزر الأخضر مع شرطة للتصغير، أو على الأسهم الخضراء للخرائط المجاورة.


METAR-TAF: